createdAt,value
2022-07-26T00:01:49.052Z,84.40
2022-07-26T00:04:21.054Z,84.60
2022-07-26T00:06:53.051Z,85.10
2022-07-26T00:09:25.779Z,85.80
2022-07-26T00:11:57.572Z,86.20
2022-07-26T00:14:30.336Z,86.40
2022-07-26T00:17:03.114Z,86.40
2022-07-26T00:19:34.912Z,86.60
2022-07-26T00:22:26.315Z,86.80
2022-07-26T00:24:58.262Z,87.20
2022-07-26T00:27:31.075Z,88.00
2022-07-26T00:30:08.211Z,88.40
2022-07-26T00:32:41.211Z,89.20
2022-07-26T00:35:13.806Z,89.30
2022-07-26T00:37:47.075Z,89.40
2022-07-26T00:40:19.722Z,89.70
2022-07-26T00:42:52.371Z,90.10
2022-07-26T00:45:24.603Z,90.10
2022-07-26T00:47:57.405Z,90.20
2022-07-26T00:50:29.548Z,90.30
2022-07-26T00:53:01.556Z,90.40
2022-07-26T00:55:34.306Z,90.70
2022-07-26T00:58:06.883Z,90.90
2022-07-26T01:00:39.591Z,90.90
2022-07-26T01:03:11.869Z,91.20
2022-07-26T01:05:43.704Z,91.00
2022-07-26T01:08:16.408Z,91.00
2022-07-26T01:10:48.420Z,90.60
2022-07-26T01:13:24.099Z,90.90
2022-07-26T01:15:56.025Z,90.50
2022-07-26T01:18:28.694Z,90.40
2022-07-26T01:21:08.984Z,90.40
2022-07-26T01:23:47.145Z,90.50
2022-07-26T01:26:19.376Z,90.40
2022-07-26T01:28:51.691Z,90.40
2022-07-26T01:31:24.962Z,90.40
2022-07-26T01:33:57.213Z,90.40
2022-07-26T01:36:29.885Z,90.60
2022-07-26T01:39:02.250Z,90.80
2022-07-26T01:41:37.988Z,90.70
2022-07-26T01:44:11.149Z,90.90
2022-07-26T01:46:43.167Z,90.90
2022-07-26T01:49:15.780Z,91.00
2022-07-26T01:51:48.103Z,91.20
2022-07-26T01:54:22.437Z,91.70
2022-07-26T01:56:57.217Z,91.50
2022-07-26T01:59:29.113Z,91.60
2022-07-26T02:02:05.546Z,91.50
2022-07-26T02:04:56.283Z,91.50
2022-07-26T02:07:45.713Z,91.80
2022-07-26T02:10:18.532Z,92.10
2022-07-26T02:12:50.834Z,92.00
2022-07-26T02:15:23.480Z,92.10
2022-07-26T02:17:55.180Z,92.00
2022-07-26T02:20:27.937Z,91.80
2022-07-26T02:23:04.592Z,91.80
2022-07-26T02:25:37.311Z,91.80
2022-07-26T02:28:10.017Z,92.00
2022-07-26T02:30:42.958Z,92.20
2022-07-26T02:33:16.294Z,92.80
2022-07-26T02:35:48.929Z,92.70
2022-07-26T02:38:20.833Z,92.80
2022-07-26T02:40:54.939Z,92.80
2022-07-26T02:43:27.338Z,92.70
2022-07-26T02:46:01.689Z,92.70
2022-07-26T02:48:35.254Z,92.70
2022-07-26T02:51:07.789Z,93.00
2022-07-26T02:53:40.432Z,93.10
2022-07-26T02:56:12.781Z,93.30
2022-07-26T02:58:44.614Z,93.40
2022-07-26T03:01:17.341Z,93.40
2022-07-26T03:03:51.111Z,93.50
2022-07-26T03:06:24.270Z,93.50
2022-07-26T03:08:56.918Z,93.60
2022-07-26T03:11:29.174Z,93.80
2022-07-26T03:14:00.983Z,93.80
2022-07-26T03:16:35.282Z,93.80
2022-07-26T03:19:07.121Z,94.00
2022-07-26T03:21:39.889Z,93.90
2022-07-26T03:24:11.908Z,94.00
2022-07-26T03:26:44.716Z,94.10
2022-07-26T03:29:17.040Z,94.30
2022-07-26T03:31:49.321Z,94.30
2022-07-26T03:34:21.261Z,94.20
2022-07-26T03:36:53.994Z,94.30
2022-07-26T03:39:25.829Z,94.40
2022-07-26T03:41:58.548Z,94.60
2022-07-26T03:44:30.701Z,94.80
2022-07-26T03:47:03.599Z,95.00
2022-07-26T03:49:36.085Z,95.10
2022-07-26T03:52:08.047Z,95.30
2022-07-26T03:54:40.729Z,95.50
2022-07-26T03:57:12.499Z,95.60
2022-07-26T03:59:45.244Z,95.70
2022-07-26T04:02:17.406Z,95.90
2022-07-26T04:04:50.129Z,96.00
2022-07-26T04:07:22.274Z,96.30
2022-07-26T04:09:58.184Z,96.60
2022-07-26T04:12:29.917Z,96.80
2022-07-26T04:15:02.936Z,97.10
2022-07-26T04:17:41.902Z,97.10
2022-07-26T04:20:14.480Z,97.30
2022-07-26T04:22:46.343Z,97.40
2022-07-26T04:25:19.282Z,97.50
2022-07-26T04:27:51.141Z,97.50
2022-07-26T04:30:24.006Z,97.70
2022-07-26T04:32:56.457Z,97.90
2022-07-26T04:35:28.964Z,97.90
2022-07-26T04:38:03.078Z,98.10
2022-07-26T04:40:34.974Z,98.20
2022-07-26T04:43:15.648Z,98.40
2022-07-26T04:45:49.218Z,98.50
2022-07-26T04:48:21.117Z,98.50
2022-07-26T04:50:53.688Z,98.70
2022-07-26T04:53:25.485Z,98.80
2022-07-26T04:55:58.091Z,99.00
2022-07-26T04:58:29.952Z,99.10
2022-07-26T05:01:09.868Z,99.20
2022-07-26T05:03:42.797Z,99.40
2022-07-26T05:06:15.336Z,99.60
2022-07-26T05:08:47.569Z,99.50
2022-07-26T05:11:19.286Z,99.60
2022-07-26T05:13:52.028Z,99.50
2022-07-26T05:16:23.829Z,99.60
2022-07-26T05:18:56.414Z,99.80
2022-07-26T05:21:28.323Z,99.60
2022-07-26T05:24:01.005Z,99.60
2022-07-26T05:26:32.901Z,99.50
2022-07-26T05:29:05.434Z,99.50
2022-07-26T05:31:37.476Z,99.30
2022-07-26T05:34:10.535Z,99.30
2022-07-26T05:36:42.534Z,99.20
2022-07-26T05:39:16.178Z,99.10
2022-07-26T05:41:48.516Z,98.90
2022-07-26T05:44:20.354Z,98.90
2022-07-26T05:46:54.240Z,99.00
2022-07-26T05:49:26.502Z,98.60
2022-07-26T05:52:27.119Z,98.60
2022-07-26T05:54:59.972Z,98.70
2022-07-26T05:57:32.414Z,98.40
2022-07-26T06:00:05.488Z,98.40
2022-07-26T06:02:44.304Z,98.30
2022-07-26T06:05:16.823Z,98.20
2022-07-26T06:07:48.694Z,98.20
2022-07-26T06:10:21.290Z,98.30
2022-07-26T06:12:53.134Z,98.30
2022-07-26T06:15:25.696Z,98.10
2022-07-26T06:17:57.928Z,98.00
2022-07-26T06:20:29.665Z,97.80
2022-07-26T06:23:02.346Z,98.10
2022-07-26T06:25:34.228Z,98.10
2022-07-26T06:28:09.187Z,98.10
2022-07-26T06:30:43.435Z,97.80
2022-07-26T06:33:16.098Z,97.60
2022-07-26T06:35:47.933Z,97.50
2022-07-26T06:38:20.510Z,97.70
2022-07-26T06:40:53.014Z,97.70
2022-07-26T06:43:25.907Z,97.90
2022-07-26T06:45:57.849Z,97.90
2022-07-26T06:48:30.582Z,97.20
2022-07-26T06:51:03.495Z,96.90
2022-07-26T06:53:36.956Z,96.30
2022-07-26T06:56:09.420Z,94.90
2022-07-26T06:58:42.391Z,95.00
2022-07-26T07:01:55.599Z,95.20
2022-07-26T07:04:08.301Z,95.10
2022-07-26T07:06:40.396Z,92.30
2022-07-26T07:09:13.514Z,90.60
2022-07-26T07:11:52.302Z,91.20
2022-07-26T07:14:31.306Z,92.10
2022-07-26T07:17:04.074Z,93.10
2022-07-26T07:19:45.622Z,94.00
2022-07-26T07:22:18.411Z,92.30
2022-07-26T07:24:50.505Z,91.70
2022-07-26T07:27:23.095Z,92.30
2022-07-26T07:29:55.032Z,93.40
2022-07-26T07:32:29.012Z,94.10
2022-07-26T07:35:00.885Z,92.00
2022-07-26T07:37:53.251Z,90.00
2022-07-26T07:40:26.443Z,86.90
2022-07-26T07:42:59.424Z,87.60
2022-07-26T07:45:31.795Z,87.50
2022-07-26T07:48:04.412Z,87.20
2022-07-26T07:50:36.467Z,88.20
2022-07-26T07:53:09.132Z,88.50
2022-07-26T07:55:46.388Z,87.30
2022-07-26T07:58:20.394Z,85.80
2022-07-26T08:00:53.496Z,82.80
2022-07-26T08:03:38.796Z,80.10
2022-07-26T08:06:11.661Z,79.30
2022-07-26T08:08:44.488Z,78.10
2022-07-26T08:11:16.548Z,80.80
2022-07-26T08:13:49.289Z,75.90
2022-07-26T08:16:21.167Z,76.20
2022-07-26T08:18:57.752Z,75.50
2022-07-26T08:21:30.690Z,75.30
2022-07-26T08:24:02.641Z,71.70
2022-07-26T08:26:35.276Z,72.70
2022-07-26T08:29:07.219Z,74.50
2022-07-26T08:31:39.947Z,73.40
2022-07-26T08:34:12.266Z,73.90
2022-07-26T08:37:06.911Z,73.70
2022-07-26T08:39:37.469Z,70.70
2022-07-26T08:42:17.755Z,72.80
2022-07-26T08:44:55.578Z,76.00
2022-07-26T08:47:37.806Z,76.30
2022-07-26T08:50:15.678Z,75.70
2022-07-26T08:52:47.644Z,77.50
2022-07-26T08:55:21.699Z,79.20
2022-07-26T08:57:54.267Z,79.30
2022-07-26T09:00:30.225Z,80.20
2022-07-26T09:03:04.014Z,80.70
2022-07-26T09:05:37.721Z,78.50
2022-07-26T09:08:30.014Z,76.30
2022-07-26T09:11:03.255Z,77.50
2022-07-26T09:13:51.155Z,78.20
2022-07-26T09:16:24.420Z,80.30
2022-07-26T09:19:14.195Z,81.20
2022-07-26T09:21:49.547Z,82.20
2022-07-26T09:24:36.016Z,81.50
2022-07-26T09:27:14.351Z,81.00
2022-07-26T09:29:51.286Z,81.20
2022-07-26T09:32:26.143Z,82.10
2022-07-26T09:35:49.649Z,81.80
2022-07-26T09:38:15.928Z,80.20
2022-07-26T09:40:50.955Z,80.00
2022-07-26T09:43:24.919Z,79.10
2022-07-26T09:46:06.372Z,78.80
2022-07-26T09:51:43.888Z,75.70
2022-07-26T09:54:29.183Z,75.70
2022-07-26T09:57:02.713Z,74.10
2022-07-26T09:59:34.568Z,74.90
2022-07-26T10:02:07.871Z,73.80
2022-07-26T10:04:43.360Z,72.40
2022-07-26T10:07:17.395Z,70.10
2022-07-26T10:09:57.349Z,70.10
2022-07-26T10:12:32.862Z,69.30
2022-07-26T10:15:05.019Z,69.20
2022-07-26T10:17:42.261Z,69.10
2022-07-26T10:20:41.666Z,68.50
2022-07-26T10:23:33.124Z,69.40
2022-07-26T10:26:07.632Z,69.50
2022-07-26T10:28:42.806Z,69.00
2022-07-26T10:31:21.056Z,67.70
2022-07-26T10:33:56.404Z,69.00
2022-07-26T10:36:31.529Z,66.60
2022-07-26T10:39:09.011Z,66.20
2022-07-26T10:41:46.564Z,65.70
2022-07-26T10:44:26.250Z,66.60
2022-07-26T10:47:08.955Z,68.60
2022-07-26T10:49:59.573Z,69.40
2022-07-26T10:52:32.787Z,68.80
2022-07-26T10:55:07.074Z,67.50
2022-07-26T10:57:45.011Z,67.70
2022-07-26T11:00:21.574Z,67.90
2022-07-26T11:02:56.851Z,67.30
2022-07-26T11:05:32.871Z,67.00
2022-07-26T11:08:09.178Z,66.50
2022-07-26T11:10:47.704Z,66.70
2022-07-26T11:13:24.261Z,66.70
2022-07-26T11:16:02.002Z,67.60
2022-07-26T11:18:36.495Z,67.00
2022-07-26T11:21:14.608Z,67.10
2022-07-26T11:23:47.897Z,66.70
2022-07-26T11:26:26.194Z,66.70
2022-07-26T11:29:06.736Z,67.00
2022-07-26T11:31:50.923Z,67.40
2022-07-26T11:34:34.793Z,68.30
2022-07-26T11:37:06.914Z,68.40
2022-07-26T11:39:39.795Z,67.60
2022-07-26T11:42:19.944Z,68.10
2022-07-26T11:44:53.562Z,68.20
2022-07-26T11:47:26.807Z,67.90
2022-07-26T11:50:18.658Z,67.50
2022-07-26T11:52:55.341Z,67.70
2022-07-26T11:55:28.769Z,68.40
2022-07-26T11:58:07.279Z,67.10
2022-07-26T12:00:39.686Z,67.50
2022-07-26T12:03:11.542Z,66.40
2022-07-26T12:05:44.361Z,66.10
2022-07-26T12:08:16.461Z,66.90
2022-07-26T12:10:55.406Z,67.00
2022-07-26T12:13:27.279Z,66.40
2022-07-26T12:16:13.299Z,66.20
2022-07-26T12:18:51.741Z,67.00
2022-07-26T12:21:41.777Z,66.40
2022-07-26T12:24:54.942Z,65.70
2022-07-26T12:27:30.404Z,66.00
2022-07-26T12:30:03.089Z,65.90
2022-07-26T12:32:37.876Z,66.60
2022-07-26T12:35:16.089Z,66.70
2022-07-26T12:37:48.777Z,66.20
2022-07-26T12:40:28.941Z,65.70
2022-07-26T12:43:02.940Z,65.90
2022-07-26T12:45:35.879Z,65.80
2022-07-26T12:48:13.034Z,65.50
2022-07-26T12:50:45.359Z,65.30
2022-07-26T12:53:17.640Z,65.10
2022-07-26T12:55:49.539Z,64.50
2022-07-26T12:58:22.200Z,65.10
2022-07-26T13:00:54.026Z,65.30
2022-07-26T13:03:26.685Z,66.00
2022-07-26T13:05:58.938Z,66.80
2022-07-26T13:08:31.306Z,66.40
2022-07-26T13:11:03.615Z,65.90
2022-07-26T13:13:35.563Z,66.70
2022-07-26T13:16:12.127Z,67.20
2022-07-26T13:18:44.306Z,67.10
2022-07-26T13:21:17.008Z,67.00
2022-07-26T13:23:48.932Z,66.50
2022-07-26T13:26:21.748Z,66.30
2022-07-26T13:28:54.315Z,66.20
2022-07-26T13:31:27.054Z,66.30
2022-07-26T13:33:59.529Z,66.30
2022-07-26T13:36:32.541Z,66.50
2022-07-26T13:39:05.493Z,66.80
2022-07-26T13:41:38.226Z,66.90
2022-07-26T13:44:10.570Z,66.90
2022-07-26T13:46:44.420Z,66.90
2022-07-26T13:49:16.467Z,66.90
2022-07-26T13:51:58.006Z,66.00
2022-07-26T13:54:34.847Z,65.40
2022-07-26T13:57:08.365Z,64.90
2022-07-26T13:59:40.169Z,65.00
2022-07-26T14:02:13.836Z,65.30
2022-07-26T14:04:45.745Z,65.50
2022-07-26T14:07:18.443Z,64.60
2022-07-26T14:09:50.290Z,64.60
2022-07-26T14:12:23.198Z,64.50
2022-07-26T14:14:55.029Z,64.50
2022-07-26T14:17:27.727Z,64.20
2022-07-26T14:19:59.643Z,63.90
2022-07-26T14:22:32.492Z,64.60
2022-07-26T14:25:05.965Z,65.30
2022-07-26T14:27:39.386Z,65.20
2022-07-26T14:30:12.031Z,65.20
2022-07-26T14:32:44.967Z,64.70
2022-07-26T14:35:17.758Z,65.00
2022-07-26T14:37:49.654Z,64.10
2022-07-26T14:40:22.555Z,63.50
2022-07-26T14:42:54.985Z,64.00
2022-07-26T14:45:27.495Z,63.60
2022-07-26T14:48:00.029Z,64.10
2022-07-26T14:50:47.034Z,64.30
2022-07-26T14:53:25.405Z,64.20
2022-07-26T14:55:58.402Z,63.10
2022-07-26T14:58:31.175Z,63.20
2022-07-26T15:01:03.075Z,63.40
2022-07-26T15:03:36.781Z,63.60
2022-07-26T15:06:08.762Z,63.20
2022-07-26T15:08:41.456Z,63.60
2022-07-26T15:11:14.356Z,63.70
2022-07-26T15:13:47.049Z,63.30
2022-07-26T15:16:18.927Z,63.30
2022-07-26T15:18:51.736Z,63.40
2022-07-26T15:21:23.642Z,63.00
2022-07-26T15:23:56.388Z,64.00
2022-07-26T15:26:28.918Z,63.30
2022-07-26T15:29:01.141Z,63.70
2022-07-26T15:31:36.768Z,63.30
2022-07-26T15:34:11.808Z,63.20
2022-07-26T15:36:43.982Z,63.10
2022-07-26T15:39:17.847Z,63.00
2022-07-26T15:41:50.655Z,63.20
2022-07-26T15:44:23.821Z,63.50
2022-07-26T15:46:58.357Z,63.50
2022-07-26T15:49:30.595Z,63.10
2022-07-26T15:52:04.779Z,63.50
2022-07-26T15:54:36.699Z,63.50
2022-07-26T15:57:09.390Z,63.00
2022-07-26T15:59:41.298Z,63.00
2022-07-26T16:02:14.601Z,63.00
2022-07-26T16:04:46.550Z,63.10
2022-07-26T16:07:19.485Z,62.90
2022-07-26T16:09:51.344Z,62.80
2022-07-26T16:12:24.376Z,64.60
2022-07-26T16:14:56.300Z,63.60
2022-07-26T16:17:28.924Z,63.40
2022-07-26T16:20:01.488Z,64.10
2022-07-26T16:22:34.582Z,64.40
2022-07-26T16:25:07.541Z,63.90
2022-07-26T16:27:44.189Z,64.00
2022-07-26T16:30:17.013Z,64.60
2022-07-26T16:32:48.901Z,64.60
2022-07-26T16:35:21.584Z,64.60
2022-07-26T16:37:53.388Z,64.60
2022-07-26T16:40:26.473Z,64.60
2022-07-26T16:42:58.297Z,64.50
2022-07-26T16:45:30.939Z,64.60
2022-07-26T16:48:04.663Z,64.70
2022-07-26T16:50:37.365Z,64.50
2022-07-26T16:53:13.233Z,64.40
2022-07-26T16:55:47.089Z,64.90
2022-07-26T16:58:20.144Z,64.80
2022-07-26T17:00:52.551Z,64.70
2022-07-26T17:03:24.399Z,65.30
2022-07-26T17:05:57.150Z,64.70
2022-07-26T17:08:29.157Z,64.30
2022-07-26T17:11:02.541Z,65.50
2022-07-26T17:13:34.363Z,67.50
2022-07-26T17:16:08.397Z,66.00
2022-07-26T17:18:40.905Z,65.30
2022-07-26T17:21:12.734Z,65.30
2022-07-26T17:23:45.453Z,66.20
2022-07-26T17:26:19.464Z,66.10
2022-07-26T17:28:51.379Z,65.40
2022-07-26T17:31:23.920Z,66.80
2022-07-26T17:33:55.727Z,68.10
2022-07-26T17:36:30.608Z,66.60
2022-07-26T17:39:03.911Z,65.90
2022-07-26T17:41:36.566Z,66.70
2022-07-26T17:44:16.229Z,67.10
2022-07-26T17:46:50.232Z,66.80
2022-07-26T17:49:22.331Z,66.90
2022-07-26T17:51:57.789Z,66.50
2022-07-26T17:54:29.632Z,67.30
2022-07-26T17:57:02.424Z,67.30
2022-07-26T17:59:34.273Z,66.80
2022-07-26T18:02:07.337Z,67.10
2022-07-26T18:04:40.109Z,67.80
2022-07-26T18:07:12.814Z,68.00
2022-07-26T18:09:44.789Z,67.40
2022-07-26T18:12:17.093Z,66.70
2022-07-26T18:14:48.898Z,67.20
2022-07-26T18:17:21.566Z,67.40
2022-07-26T18:19:53.384Z,68.40
2022-07-26T18:22:26.508Z,68.10
2022-07-26T18:24:58.361Z,72.40
2022-07-26T18:27:30.683Z,70.00
2022-07-26T18:30:03.790Z,68.70
2022-07-26T18:32:36.839Z,66.80
2022-07-26T18:35:09.650Z,66.80
2022-07-26T18:37:41.643Z,67.30
2022-07-26T18:40:14.293Z,67.80
2022-07-26T18:42:46.545Z,66.30
2022-07-26T18:45:28.298Z,66.40
2022-07-26T18:48:01.219Z,66.40
2022-07-26T18:50:36.261Z,66.50
2022-07-26T18:53:08.444Z,66.60
2022-07-26T18:55:41.075Z,66.90
2022-07-26T18:58:14.632Z,67.10
2022-07-26T19:00:47.909Z,67.40
2022-07-26T19:03:21.847Z,67.70
2022-07-26T19:05:53.692Z,68.10
2022-07-26T19:08:26.352Z,70.00
2022-07-26T19:10:58.517Z,70.60
2022-07-26T19:13:30.764Z,73.70
2022-07-26T19:16:02.706Z,80.20
2022-07-26T19:18:35.409Z,73.40
2022-07-26T19:21:07.125Z,71.00
2022-07-26T19:23:42.649Z,70.60
2022-07-26T19:26:14.457Z,73.80
2022-07-26T19:28:47.129Z,72.70
2022-07-26T19:31:19.587Z,71.10
2022-07-26T19:33:51.930Z,70.30
2022-07-26T19:36:25.935Z,72.50
2022-07-26T19:39:01.193Z,73.50
2022-07-26T19:41:33.901Z,73.30
2022-07-26T19:44:05.765Z,72.20
2022-07-26T19:46:38.269Z,75.90
2022-07-26T19:49:12.542Z,71.10
2022-07-26T19:51:45.564Z,71.80
2022-07-26T19:54:17.444Z,71.20
2022-07-26T19:56:50.266Z,72.30
2022-07-26T19:59:23.916Z,79.30
2022-07-26T20:01:58.249Z,72.30
2022-07-26T20:04:30.542Z,72.20
2022-07-26T20:07:04.250Z,76.70
2022-07-26T20:09:36.207Z,74.50
2022-07-26T20:12:09.135Z,75.30
2022-07-26T20:14:41.179Z,79.30
2022-07-26T20:17:14.042Z,75.20
2022-07-26T20:19:45.962Z,76.50
2022-07-26T20:22:18.687Z,74.20
2022-07-26T20:24:55.129Z,74.70
2022-07-26T20:27:27.859Z,77.70
2022-07-26T20:30:01.353Z,75.10
2022-07-26T20:32:34.196Z,79.50
2022-07-26T20:35:08.867Z,79.00
2022-07-26T20:37:43.086Z,76.70
2022-07-26T20:40:15.590Z,75.90
2022-07-26T20:42:50.405Z,79.40
2022-07-26T20:45:23.993Z,76.90
2022-07-26T20:47:57.011Z,77.50
2022-07-26T20:50:29.127Z,78.50
2022-07-26T20:53:01.832Z,78.40
2022-07-26T20:55:33.545Z,78.70
2022-07-26T20:58:07.566Z,78.90
2022-07-26T21:00:39.898Z,79.10
2022-07-26T21:03:13.770Z,79.40
2022-07-26T21:05:46.473Z,79.80
2022-07-26T21:08:18.633Z,79.40
2022-07-26T21:10:51.299Z,80.30
2022-07-26T21:13:23.530Z,80.10
2022-07-26T21:15:55.863Z,82.70
2022-07-26T21:18:29.898Z,80.60
2022-07-26T21:21:02.641Z,80.00
2022-07-26T21:23:34.442Z,82.20
2022-07-26T21:26:07.361Z,80.50
2022-07-26T21:28:39.948Z,81.80
2022-07-26T21:31:15.236Z,81.20
2022-07-26T21:33:47.050Z,84.10
2022-07-26T21:36:19.661Z,84.50
2022-07-26T21:38:51.529Z,82.30
2022-07-26T21:41:24.275Z,80.90
2022-07-26T21:43:56.157Z,81.20
2022-07-26T21:46:28.808Z,83.40
2022-07-26T21:49:00.783Z,82.60
2022-07-26T21:51:33.571Z,83.70
2022-07-26T21:54:14.884Z,82.60
2022-07-26T21:56:48.534Z,83.00
2022-07-26T21:59:21.140Z,84.40
2022-07-26T22:01:53.047Z,84.70
2022-07-26T22:04:25.736Z,83.30
2022-07-26T22:06:57.684Z,84.60
2022-07-26T22:09:30.261Z,86.20
2022-07-26T22:12:02.149Z,83.30
2022-07-26T22:14:34.541Z,83.00
2022-07-26T22:17:06.264Z,83.10
2022-07-26T22:19:40.693Z,85.30
2022-07-26T22:22:13.241Z,85.90
2022-07-26T22:24:45.397Z,84.40
2022-07-26T22:27:17.281Z,83.30
2022-07-26T22:29:49.873Z,85.20
2022-07-26T22:32:22.638Z,84.70
2022-07-26T22:34:55.004Z,86.90
2022-07-26T22:37:26.861Z,84.80
2022-07-26T22:39:59.683Z,85.00
2022-07-26T22:42:31.772Z,86.40
2022-07-26T22:45:09.946Z,85.70
2022-07-26T22:47:55.648Z,86.10
2022-07-26T22:50:28.854Z,88.40
2022-07-26T22:53:01.035Z,88.80
2022-07-26T22:55:33.965Z,85.30
2022-07-26T22:58:08.223Z,87.90
2022-07-26T23:00:40.775Z,85.20
2022-07-26T23:03:19.693Z,88.00
2022-07-26T23:05:53.096Z,86.90
2022-07-26T23:08:46.352Z,87.40
2022-07-26T23:11:19.116Z,88.30
2022-07-26T23:13:50.905Z,88.70
2022-07-26T23:16:31.413Z,87.70
2022-07-26T23:19:04.690Z,87.00
2022-07-26T23:21:36.554Z,88.00
2022-07-26T23:24:09.707Z,88.80
2022-07-26T23:26:41.828Z,88.20
2022-07-26T23:29:14.237Z,88.10
2022-07-26T23:31:47.211Z,87.10
2022-07-26T23:34:19.446Z,90.40
2022-07-26T23:36:51.250Z,88.10
2022-07-26T23:39:23.876Z,88.20
2022-07-26T23:41:56.280Z,90.00
2022-07-26T23:44:30.942Z,86.60
2022-07-26T23:47:02.889Z,88.90
2022-07-26T23:49:35.597Z,88.80
2022-07-26T23:52:07.885Z,87.70
2022-07-26T23:54:39.611Z,87.90
2022-07-26T23:57:12.452Z,89.00
2022-07-26T23:59:44.320Z,89.20
